createdAt,value
2022-10-01T00:01:15.639Z,60.14
2022-10-01T00:03:42.776Z,59.35
2022-10-01T00:06:14.320Z,59.73
2022-10-01T00:08:41.870Z,59.19
2022-10-01T00:11:10.832Z,59.64
2022-10-01T00:13:38.886Z,59.00
2022-10-01T00:16:07.804Z,59.30
2022-10-01T00:18:38.327Z,59.55
2022-10-01T00:21:12.215Z,59.73
2022-10-01T00:23:38.898Z,59.02
2022-10-01T00:26:11.722Z,59.76
2022-10-01T00:28:38.466Z,60.52
2022-10-01T00:31:07.316Z,60.46
2022-10-01T00:33:34.186Z,59.68
2022-10-01T00:36:00.980Z,59.61
2022-10-01T00:38:29.385Z,59.90
2022-10-01T00:40:56.328Z,59.99
2022-10-01T00:43:23.828Z,60.38
2022-10-01T00:45:51.576Z,59.83
2022-10-01T00:48:18.287Z,59.50
2022-10-01T00:50:51.098Z,59.58
2022-10-01T00:53:19.094Z,59.61
2022-10-01T00:55:52.139Z,59.55
2022-10-01T00:58:20.337Z,59.32
2022-10-01T01:00:51.800Z,59.53
2022-10-01T01:03:18.438Z,59.33
2022-10-01T01:05:46.438Z,59.65
2022-10-01T01:08:13.017Z,59.61
2022-10-01T01:10:59.727Z,59.72
2022-10-01T01:13:35.078Z,59.81
2022-10-01T01:16:02.615Z,59.50
2022-10-01T01:18:41.447Z,59.89
2022-10-01T01:21:21.400Z,59.81
2022-10-01T01:24:08.237Z,59.59
2022-10-01T01:26:50.220Z,59.58
2022-10-01T01:29:28.274Z,59.74
2022-10-01T01:31:58.569Z,60.20
2022-10-01T01:34:28.969Z,59.61
2022-10-01T01:37:01.808Z,59.41
2022-10-01T01:39:30.329Z,59.42
2022-10-01T01:42:01.403Z,59.71
2022-10-01T01:44:31.810Z,59.85
2022-10-01T01:46:59.124Z,59.70
2022-10-01T01:49:25.905Z,59.80
2022-10-01T01:51:56.474Z,59.79
2022-10-01T01:54:23.204Z,60.04
2022-10-01T01:56:50.474Z,60.15
2022-10-01T01:59:19.763Z,59.89
2022-10-01T02:01:46.565Z,60.20
2022-10-01T02:04:28.428Z,59.88
2022-10-01T02:07:16.392Z,59.51
2022-10-01T02:10:02.103Z,59.64
2022-10-01T02:12:40.713Z,60.23
2022-10-01T02:15:07.283Z,59.79
2022-10-01T02:17:50.723Z,60.00
2022-10-01T02:20:21.336Z,60.28
2022-10-01T02:22:58.541Z,59.83
2022-10-01T02:25:27.828Z,59.85
2022-10-01T02:27:56.333Z,60.08
2022-10-01T02:30:22.998Z,59.80
2022-10-01T02:32:50.304Z,59.99
2022-10-01T02:35:18.720Z,59.87
2022-10-01T02:37:47.642Z,60.12
2022-10-01T02:40:17.009Z,60.19
2022-10-01T02:42:49.198Z,59.96
2022-10-01T02:45:18.426Z,60.43
2022-10-01T02:47:48.080Z,60.14
2022-10-01T02:50:15.906Z,60.22
2022-10-01T02:52:53.120Z,60.18
2022-10-01T02:55:22.670Z,60.09
2022-10-01T02:57:49.625Z,60.08
2022-10-01T03:00:21.561Z,60.11
2022-10-01T03:02:48.565Z,60.32
2022-10-01T03:05:16.304Z,60.13
2022-10-01T03:07:43.779Z,60.21
2022-10-01T03:10:11.189Z,60.42
2022-10-01T03:12:37.864Z,60.69
2022-10-01T03:15:05.130Z,60.69
2022-10-01T03:17:31.748Z,60.69
2022-10-01T03:19:58.422Z,60.53
2022-10-01T03:22:25.050Z,60.50
2022-10-01T03:24:52.382Z,60.55
2022-10-01T03:27:19.765Z,60.52
2022-10-01T03:29:46.893Z,60.21
2022-10-01T03:32:13.609Z,60.13
2022-10-01T03:34:40.594Z,60.23
2022-10-01T03:37:07.303Z,60.39
2022-10-01T03:39:34.476Z,60.25
2022-10-01T03:42:01.166Z,60.73
2022-10-01T03:44:28.746Z,60.33
2022-10-01T03:46:55.414Z,60.20
2022-10-01T03:49:21.983Z,60.21
2022-10-01T03:51:48.579Z,60.38
2022-10-01T03:54:15.354Z,60.35
2022-10-01T03:56:42.827Z,60.23
2022-10-01T03:59:12.635Z,60.72
2022-10-01T04:01:39.706Z,60.74
2022-10-01T04:04:06.910Z,60.41
2022-10-01T04:06:33.756Z,60.46
2022-10-01T04:09:00.406Z,60.32
2022-10-01T04:11:27.248Z,60.63
2022-10-01T04:13:54.011Z,60.73
2022-10-01T04:16:20.622Z,60.76
2022-10-01T04:18:47.355Z,60.43
2022-10-01T04:21:15.729Z,60.68
2022-10-01T04:23:42.581Z,60.49
2022-10-01T04:26:09.505Z,60.37
2022-10-01T04:28:36.227Z,60.23
2022-10-01T04:31:24.124Z,60.42
2022-10-01T04:33:51.129Z,60.51
2022-10-01T04:36:18.135Z,60.56
2022-10-01T04:38:44.732Z,60.40
2022-10-01T04:41:11.383Z,60.41
2022-10-01T04:43:38.002Z,60.58
2022-10-01T04:46:04.649Z,60.10
2022-10-01T04:48:31.339Z,60.31
2022-10-01T04:50:57.978Z,60.53
2022-10-01T04:53:24.612Z,60.50
2022-10-01T04:55:51.186Z,60.18
2022-10-01T04:58:18.827Z,60.41
2022-10-01T05:00:50.138Z,60.12
2022-10-01T05:03:17.310Z,60.27
2022-10-01T05:05:44.182Z,60.00
2022-10-01T05:08:10.797Z,60.32
2022-10-01T05:10:37.436Z,60.31
2022-10-01T05:13:04.072Z,60.01
2022-10-01T05:15:31.181Z,60.40
2022-10-01T05:17:58.119Z,60.17
2022-10-01T05:20:26.240Z,60.09
2022-10-01T05:22:53.955Z,60.32
2022-10-01T05:25:20.835Z,60.31
2022-10-01T05:27:47.588Z,60.30
2022-10-01T05:30:18.824Z,60.18
2022-10-01T05:32:53.289Z,60.16
2022-10-01T05:35:19.957Z,60.15
2022-10-01T05:37:46.559Z,60.26
2022-10-01T05:40:13.139Z,60.48
2022-10-01T05:42:45.281Z,60.72
2022-10-01T05:45:11.837Z,60.61
2022-10-01T05:47:39.552Z,60.47
2022-10-01T05:50:06.430Z,60.16
2022-10-01T05:52:33.211Z,60.35
2022-10-01T05:55:00.008Z,60.12
2022-10-01T05:57:26.616Z,60.47
2022-10-01T05:59:53.211Z,60.14
2022-10-01T06:02:20.054Z,60.20
2022-10-01T06:04:46.762Z,60.12
2022-10-01T06:07:14.159Z,60.21
2022-10-01T06:09:40.786Z,60.46
2022-10-01T06:12:08.826Z,60.56
2022-10-01T06:14:35.550Z,60.68
2022-10-01T06:17:02.140Z,60.26
2022-10-01T06:19:28.770Z,60.48
2022-10-01T06:21:55.355Z,60.50
2022-10-01T06:24:22.014Z,60.33
2022-10-01T06:26:49.274Z,60.54
2022-10-01T06:29:15.870Z,60.33
2022-10-01T06:31:42.578Z,60.77
2022-10-01T06:34:09.283Z,60.63
2022-10-01T06:36:35.841Z,60.55
2022-10-01T06:39:02.486Z,60.29
2022-10-01T06:41:29.062Z,60.47
2022-10-01T06:43:55.738Z,60.41
2022-10-01T06:46:22.379Z,61.18
2022-10-01T06:48:49.066Z,61.41
2022-10-01T06:51:15.640Z,61.74
2022-10-01T06:53:45.420Z,61.64
2022-10-01T06:56:14.053Z,62.01
2022-10-01T06:58:40.716Z,62.11
2022-10-01T07:01:07.382Z,62.01
2022-10-01T07:03:34.338Z,62.07
2022-10-01T07:06:02.412Z,62.34
2022-10-01T07:08:29.236Z,61.86
2022-10-01T07:11:02.970Z,62.26
2022-10-01T07:13:29.755Z,61.77
2022-10-01T07:15:56.429Z,62.03
2022-10-01T07:18:23.504Z,61.84
2022-10-01T07:20:51.867Z,61.34
2022-10-01T07:23:18.532Z,61.50
2022-10-01T07:25:45.166Z,61.61
2022-10-01T07:28:16.820Z,61.51
2022-10-01T07:30:58.275Z,61.26
2022-10-01T07:33:25.337Z,61.26
2022-10-01T07:35:51.976Z,60.81
2022-10-01T07:38:18.574Z,60.69
2022-10-01T07:40:59.136Z,60.87
2022-10-01T07:43:25.925Z,60.82
2022-10-01T07:45:58.349Z,60.82
2022-10-01T07:48:25.328Z,60.46
2022-10-01T07:50:53.122Z,59.98
2022-10-01T07:53:20.145Z,60.15
2022-10-01T07:55:46.899Z,59.64
2022-10-01T07:58:13.580Z,60.14
2022-10-01T08:00:40.185Z,59.90
2022-10-01T08:03:06.957Z,60.18
2022-10-01T08:05:35.010Z,60.13
2022-10-01T08:08:03.008Z,60.15
2022-10-01T08:10:30.027Z,60.13
2022-10-01T08:13:08.487Z,60.62
2022-10-01T08:15:35.645Z,60.30
2022-10-01T08:18:03.318Z,59.90
2022-10-01T08:20:29.951Z,60.18
2022-10-01T08:23:06.458Z,59.73
2022-10-01T08:25:33.421Z,59.74
2022-10-01T08:28:03.059Z,59.57
2022-10-01T08:30:30.135Z,59.35
2022-10-01T08:32:57.476Z,59.33
2022-10-01T08:35:24.348Z,58.99
2022-10-01T08:37:51.134Z,58.91
2022-10-01T08:40:19.697Z,59.10
2022-10-01T08:43:12.797Z,58.65
2022-10-01T08:45:41.996Z,58.57
2022-10-01T08:48:15.017Z,58.74
2022-10-01T08:51:05.097Z,58.59
2022-10-01T08:53:50.625Z,58.51
2022-10-01T08:56:24.992Z,57.10
2022-10-01T08:58:59.147Z,57.10
2022-10-01T09:01:26.845Z,56.34
2022-10-01T09:03:54.016Z,56.33
2022-10-01T09:06:25.633Z,55.44
2022-10-01T09:08:58.359Z,55.68
2022-10-01T09:11:37.662Z,55.48
2022-10-01T09:14:14.144Z,55.32
2022-10-01T09:16:59.160Z,54.45
2022-10-01T09:19:40.679Z,55.04
2022-10-01T09:22:13.193Z,54.38
2022-10-01T09:24:50.696Z,54.22
2022-10-01T09:27:18.472Z,54.14
2022-10-01T09:29:52.825Z,54.29
2022-10-01T09:32:21.843Z,54.48
2022-10-01T09:34:48.868Z,54.79
2022-10-01T09:37:15.517Z,54.78
2022-10-01T09:39:46.813Z,54.36
2022-10-01T09:42:13.428Z,54.71
2022-10-01T09:44:40.083Z,54.73
2022-10-01T09:47:20.501Z,54.52
2022-10-01T09:49:48.904Z,54.44
2022-10-01T09:52:15.623Z,54.87
2022-10-01T09:54:55.824Z,55.02
2022-10-01T09:57:28.794Z,54.94
2022-10-01T10:00:10.156Z,54.77
2022-10-01T10:02:48.800Z,55.05
2022-10-01T10:05:17.612Z,54.81
2022-10-01T10:07:45.719Z,54.43
2022-10-01T10:10:26.097Z,54.72
2022-10-01T10:13:04.498Z,54.60
2022-10-01T10:15:32.726Z,54.65
2022-10-01T10:18:11.935Z,53.98
2022-10-01T10:20:53.575Z,54.05
2022-10-01T10:23:27.701Z,53.92
2022-10-01T10:25:55.110Z,53.76
2022-10-01T10:28:23.939Z,53.76
2022-10-01T10:30:58.252Z,53.97
2022-10-01T10:33:26.519Z,54.02
2022-10-01T10:36:03.642Z,53.99
2022-10-01T10:38:34.661Z,54.23
2022-10-01T10:41:02.217Z,53.82
2022-10-01T10:43:32.188Z,53.76
2022-10-01T10:45:59.034Z,53.38
2022-10-01T10:48:29.447Z,53.61
2022-10-01T10:51:02.723Z,53.08
2022-10-01T10:53:32.015Z,53.09
2022-10-01T10:56:02.672Z,53.09
2022-10-01T10:58:30.428Z,53.72
2022-10-01T11:01:01.106Z,53.41
2022-10-01T11:03:29.471Z,53.09
2022-10-01T11:05:59.526Z,52.73
2022-10-01T11:08:29.037Z,52.53
2022-10-01T11:11:07.140Z,51.51
2022-10-01T11:13:39.569Z,51.39
2022-10-01T11:16:24.950Z,51.61
2022-10-01T11:19:01.720Z,51.38
2022-10-01T11:21:31.195Z,51.21
2022-10-01T11:24:03.976Z,50.82
2022-10-01T11:26:45.978Z,51.18
2022-10-01T11:29:21.623Z,50.58
2022-10-01T11:32:02.943Z,50.77
2022-10-01T11:34:29.655Z,50.38
2022-10-01T11:37:01.648Z,50.57
2022-10-01T11:39:30.099Z,50.61
2022-10-01T11:42:02.090Z,51.02
2022-10-01T11:44:31.466Z,50.62
2022-10-01T11:47:03.739Z,50.59
2022-10-01T11:49:42.827Z,50.43
2022-10-01T11:52:18.548Z,49.86
2022-10-01T11:55:25.345Z,50.38
2022-10-01T11:58:13.818Z,50.38
2022-10-01T12:00:59.041Z,50.31
2022-10-01T12:03:38.302Z,50.38
2022-10-01T12:06:09.609Z,50.33
2022-10-01T12:08:38.156Z,50.38
2022-10-01T12:11:17.929Z,50.24
2022-10-01T12:13:50.588Z,50.55
2022-10-01T12:16:36.110Z,50.57
2022-10-01T12:19:05.755Z,50.50
2022-10-01T12:21:38.493Z,50.93
2022-10-01T12:24:07.303Z,50.55
2022-10-01T12:26:37.354Z,50.86
2022-10-01T12:29:15.362Z,50.65
2022-10-01T12:31:47.708Z,51.35
2022-10-01T12:34:23.654Z,50.69
2022-10-01T12:37:13.528Z,50.78
2022-10-01T12:39:43.156Z,50.79
2022-10-01T12:42:31.336Z,51.35
2022-10-01T12:44:57.901Z,50.65
2022-10-01T12:47:35.324Z,50.54
2022-10-01T12:50:20.029Z,50.77
2022-10-01T12:52:59.966Z,50.73
2022-10-01T12:55:35.548Z,50.28
2022-10-01T12:58:08.336Z,50.32
2022-10-01T13:00:56.088Z,49.85
2022-10-01T13:03:30.931Z,50.17
2022-10-01T13:06:00.856Z,50.22
2022-10-01T13:08:42.627Z,50.17
2022-10-01T13:11:25.906Z,50.08
2022-10-01T13:13:53.606Z,49.95
2022-10-01T13:16:32.535Z,50.24
2022-10-01T13:19:24.675Z,49.80
2022-10-01T13:22:15.810Z,49.80
2022-10-01T13:24:42.376Z,49.20
2022-10-01T13:27:09.037Z,49.29
2022-10-01T13:29:54.153Z,48.78
2022-10-01T13:32:44.526Z,49.27
2022-10-01T13:35:49.521Z,48.99
2022-10-01T13:38:17.665Z,49.10
2022-10-01T13:41:07.642Z,48.88
2022-10-01T13:43:35.599Z,49.50
2022-10-01T13:46:09.590Z,48.94
2022-10-01T13:48:37.692Z,49.15
2022-10-01T13:51:09.345Z,47.95
2022-10-01T13:53:38.679Z,48.43
2022-10-01T13:56:05.757Z,48.63
2022-10-01T13:58:34.269Z,48.86
2022-10-01T14:01:02.370Z,48.45
2022-10-01T14:03:38.138Z,48.90
2022-10-01T14:06:06.851Z,49.09
2022-10-01T14:09:00.722Z,48.84
2022-10-01T14:11:47.566Z,48.85
2022-10-01T14:14:39.502Z,48.96
2022-10-01T14:17:08.049Z,48.42
2022-10-01T14:19:34.785Z,48.43
2022-10-01T14:22:04.371Z,48.33
2022-10-01T14:24:36.936Z,48.35
2022-10-01T14:27:12.641Z,48.48
2022-10-01T14:29:42.192Z,48.69
2022-10-01T14:32:29.045Z,48.71
2022-10-01T14:35:01.774Z,48.95
2022-10-01T14:37:29.157Z,48.24
2022-10-01T14:40:03.074Z,48.81
2022-10-01T14:42:29.828Z,47.95
2022-10-01T14:44:56.607Z,48.08
2022-10-01T14:47:24.331Z,48.39
2022-10-01T14:49:51.557Z,48.50
2022-10-01T14:52:22.991Z,48.58
2022-10-01T14:54:52.557Z,48.88
2022-10-01T14:57:27.056Z,49.07
2022-10-01T14:59:54.184Z,49.10
2022-10-01T15:02:22.699Z,49.32
2022-10-01T15:04:50.794Z,49.50
2022-10-01T15:07:18.012Z,48.88
2022-10-01T15:09:45.382Z,48.87
2022-10-01T15:12:31.938Z,49.11
2022-10-01T15:14:58.708Z,49.27
2022-10-01T15:17:27.097Z,49.26
2022-10-01T15:19:55.310Z,49.01
2022-10-01T15:22:25.302Z,48.83
2022-10-01T15:24:53.025Z,48.33
2022-10-01T15:27:21.132Z,48.42
2022-10-01T15:29:56.047Z,48.03
2022-10-01T15:32:24.306Z,48.06
2022-10-01T15:34:55.376Z,48.31
2022-10-01T15:37:35.554Z,48.65
2022-10-01T15:40:03.176Z,47.44
2022-10-01T15:42:32.093Z,47.30
2022-10-01T15:45:07.614Z,47.82
2022-10-01T15:47:37.620Z,47.48
2022-10-01T15:50:10.373Z,46.38
2022-10-01T15:52:51.607Z,46.15
2022-10-01T15:55:21.941Z,45.92
2022-10-01T15:57:50.443Z,45.59
2022-10-01T16:00:21.949Z,45.96
2022-10-01T16:02:48.994Z,45.60
2022-10-01T16:05:18.095Z,45.63
2022-10-01T16:07:46.940Z,45.67
2022-10-01T16:10:33.802Z,45.52
2022-10-01T16:13:00.680Z,45.58
2022-10-01T16:15:29.216Z,45.63
2022-10-01T16:17:57.464Z,45.64
2022-10-01T16:20:43.959Z,45.75
2022-10-01T16:23:31.916Z,45.89
2022-10-01T16:25:58.545Z,45.62
2022-10-01T16:28:32.528Z,45.56
2022-10-01T16:31:04.037Z,45.60
2022-10-01T16:33:30.805Z,45.29
2022-10-01T16:36:11.003Z,44.99
2022-10-01T16:38:37.665Z,45.60
2022-10-01T16:41:05.671Z,45.35
2022-10-01T16:43:32.411Z,44.94
2022-10-01T16:45:59.518Z,45.83
2022-10-01T16:48:26.172Z,45.45
2022-10-01T16:50:59.265Z,45.69
2022-10-01T16:53:26.839Z,45.81
2022-10-01T16:55:54.991Z,45.52
2022-10-01T16:58:21.992Z,45.52
2022-10-01T17:00:51.611Z,45.59
2022-10-01T17:03:19.578Z,45.95
2022-10-01T17:05:46.714Z,45.68
2022-10-01T17:08:13.769Z,45.82
2022-10-01T17:10:52.553Z,45.88
2022-10-01T17:13:19.441Z,45.82
2022-10-01T17:15:48.256Z,45.89
2022-10-01T17:18:14.904Z,45.97
2022-10-01T17:20:41.592Z,45.77
2022-10-01T17:23:08.628Z,45.97
2022-10-01T17:25:37.036Z,46.75
2022-10-01T17:28:05.277Z,46.67
2022-10-01T17:30:32.907Z,46.33
2022-10-01T17:33:00.234Z,46.28
2022-10-01T17:35:27.378Z,45.98
2022-10-01T17:37:53.988Z,46.11
2022-10-01T17:40:20.656Z,46.14
2022-10-01T17:42:47.338Z,46.07
2022-10-01T17:45:14.413Z,46.69
2022-10-01T17:47:44.658Z,46.46
2022-10-01T17:50:11.607Z,46.66
2022-10-01T17:52:38.217Z,46.31
2022-10-01T17:55:05.527Z,46.31
2022-10-01T17:57:32.338Z,46.25
2022-10-01T17:59:58.965Z,46.54
2022-10-01T18:02:42.880Z,46.40
2022-10-01T18:05:12.417Z,46.56
2022-10-01T18:07:39.574Z,47.18
2022-10-01T18:10:07.502Z,47.13
2022-10-01T18:12:34.686Z,46.96
2022-10-01T18:15:01.404Z,46.86
2022-10-01T18:17:28.074Z,46.51
2022-10-01T18:19:54.966Z,46.74
2022-10-01T18:22:21.577Z,46.35
2022-10-01T18:24:48.325Z,46.31
2022-10-01T18:27:15.162Z,46.56
2022-10-01T18:29:41.957Z,46.44
2022-10-01T18:32:17.586Z,46.21
2022-10-01T18:34:54.672Z,46.67
2022-10-01T18:37:27.570Z,46.74
2022-10-01T18:40:00.267Z,47.01
2022-10-01T18:42:26.870Z,47.03
2022-10-01T18:44:57.171Z,47.68
2022-10-01T18:47:42.314Z,47.50
2022-10-01T18:50:21.039Z,47.51
2022-10-01T18:52:52.672Z,47.55
2022-10-01T18:55:22.278Z,47.84
2022-10-01T18:58:03.545Z,47.87
2022-10-01T19:00:53.007Z,48.11
2022-10-01T19:03:19.680Z,48.09
2022-10-01T19:06:05.977Z,48.17
2022-10-01T19:08:46.783Z,48.16
2022-10-01T19:11:23.454Z,47.79
2022-10-01T19:13:59.584Z,48.37
2022-10-01T19:16:38.721Z,48.15
2022-10-01T19:19:08.516Z,47.98
2022-10-01T19:21:54.308Z,48.03
2022-10-01T19:24:23.886Z,48.22
2022-10-01T19:27:10.559Z,48.37
2022-10-01T19:29:37.117Z,48.42
2022-10-01T19:32:07.720Z,48.49
2022-10-01T19:34:37.427Z,48.61
2022-10-01T19:37:06.826Z,48.47
2022-10-01T19:39:36.967Z,48.29
2022-10-01T19:42:16.428Z,48.67
2022-10-01T19:45:01.674Z,48.47
2022-10-01T19:47:34.399Z,48.56
2022-10-01T19:50:06.599Z,48.97
2022-10-01T19:52:35.806Z,48.91
2022-10-01T19:55:02.595Z,48.78
2022-10-01T19:57:30.679Z,48.99
2022-10-01T20:00:13.021Z,48.86
2022-10-01T20:02:45.963Z,48.68
2022-10-01T20:05:18.167Z,48.75
2022-10-01T20:08:00.672Z,48.79
2022-10-01T20:10:37.995Z,48.86
2022-10-01T20:13:07.319Z,49.28
2022-10-01T20:15:40.712Z,49.39
2022-10-01T20:18:16.365Z,48.94
2022-10-01T20:20:53.823Z,49.19
2022-10-01T20:23:39.376Z,49.25
2022-10-01T20:26:32.549Z,49.46
2022-10-01T20:29:17.941Z,49.40
2022-10-01T20:32:06.805Z,49.35
2022-10-01T20:34:36.521Z,49.16
2022-10-01T20:37:13.025Z,49.57
2022-10-01T20:39:42.127Z,49.44
2022-10-01T20:42:15.983Z,49.63
2022-10-01T20:44:42.646Z,49.41
2022-10-01T20:47:21.763Z,49.65
2022-10-01T20:50:09.319Z,50.04
2022-10-01T20:52:48.348Z,50.29
2022-10-01T20:55:19.378Z,49.95
2022-10-01T20:57:54.809Z,50.26
2022-10-01T21:00:25.389Z,50.29
2022-10-01T21:03:01.855Z,50.32
2022-10-01T21:05:28.442Z,50.09
2022-10-01T21:07:59.262Z,49.94
2022-10-01T21:10:30.363Z,50.32
2022-10-01T21:13:05.640Z,50.30
2022-10-01T21:15:39.154Z,50.31
2022-10-01T21:18:11.910Z,50.30
2022-10-01T21:20:59.920Z,50.29
2022-10-01T21:23:29.537Z,49.80
2022-10-01T21:26:07.636Z,50.14
2022-10-01T21:28:56.958Z,49.98
2022-10-01T21:31:23.544Z,49.88
2022-10-01T21:33:54.424Z,50.29
2022-10-01T21:36:30.177Z,50.30
2022-10-01T21:39:04.441Z,50.31
2022-10-01T21:41:38.289Z,49.91
2022-10-01T21:44:16.869Z,49.93
2022-10-01T21:46:51.248Z,50.12
2022-10-01T21:49:24.566Z,50.31
2022-10-01T21:51:58.725Z,49.96
2022-10-01T21:54:25.414Z,50.14
2022-10-01T21:57:10.648Z,50.34
2022-10-01T22:00:03.139Z,50.22
2022-10-01T22:02:40.280Z,50.16
2022-10-01T22:05:23.418Z,50.34
2022-10-01T22:07:56.956Z,49.94
2022-10-01T22:10:27.746Z,50.35
2022-10-01T22:12:58.850Z,49.97
2022-10-01T22:15:29.389Z,49.97
2022-10-01T22:17:56.832Z,50.37
2022-10-01T22:20:31.325Z,50.09
2022-10-01T22:23:01.556Z,50.36
2022-10-01T22:25:28.937Z,50.05
2022-10-01T22:28:02.323Z,50.04
2022-10-01T22:30:33.213Z,50.38
2022-10-01T22:33:26.263Z,50.39
2022-10-01T22:36:11.485Z,50.66
2022-10-01T22:38:46.413Z,50.45
2022-10-01T22:41:18.104Z,50.44
2022-10-01T22:43:45.895Z,50.67
2022-10-01T22:46:31.103Z,50.91
2022-10-01T22:49:03.848Z,50.63
2022-10-01T22:51:45.736Z,50.97
2022-10-01T22:54:21.789Z,50.74
2022-10-01T22:57:05.074Z,51.15
2022-10-01T22:59:51.745Z,50.96
2022-10-01T23:02:25.542Z,51.14
2022-10-01T23:05:01.735Z,51.06
2022-10-01T23:07:46.787Z,51.33
2022-10-01T23:10:16.562Z,51.79
2022-10-01T23:13:05.972Z,51.71
2022-10-01T23:15:52.592Z,51.80
2022-10-01T23:18:22.172Z,51.73
2022-10-01T23:21:04.848Z,51.82
2022-10-01T23:23:32.573Z,52.06
2022-10-01T23:26:05.198Z,51.79
2022-10-01T23:28:39.250Z,52.04
2022-10-01T23:31:05.836Z,52.08
2022-10-01T23:33:50.902Z,52.34
2022-10-01T23:36:17.480Z,51.80
2022-10-01T23:38:47.144Z,52.60
2022-10-01T23:41:34.178Z,52.24
2022-10-01T23:44:24.059Z,52.49
2022-10-01T23:46:52.191Z,52.48
2022-10-01T23:49:21.797Z,52.69
2022-10-01T23:52:01.198Z,52.25
2022-10-01T23:54:35.451Z,52.38
2022-10-01T23:57:12.824Z,52.25
2022-10-01T23:59:39.386Z,52.37
